Time;durP1;ratioP1;P1;durP2;ratioP2;P2;SDS_P1;SDS_P2;PMS_P1;PMS_P2;Temp;Humidity;BMP_temperature;BMP_pressure;BME280_temperature;BME280_humidity;BME280_pressure;Samples;Min_cycle;Max_cycle;Signal;HPM_P1;HPM_P2
2023/12/30 00:01:28;;;;;;;1.20;0.85;;;18.10;62.90;;;;;;4985557;28;20054;-65
2023/12/30 00:03:53;;;;;;;2.83;0.63;;;18.10;62.90;;;;;;4986072;28;20034;-65
2023/12/30 00:06:19;;;;;;;1.02;0.85;;;18.10;62.90;;;;;;4986340;28;20077;-65
2023/12/30 00:08:45;;;;;;;1.83;1.00;;;18.10;62.90;;;;;;4968630;28;20041;-65
2023/12/30 00:11:11;;;;;;;1.15;0.80;;;18.10;62.80;;;;;;4968203;28;20077;-62
2023/12/30 00:13:39;;;;;;;2.25;1.00;;;18.10;62.80;;;;;;4985821;28;20026;-65
2023/12/30 00:16:05;;;;;;;1.90;1.00;;;18.10;62.70;;;;;;4985946;28;20558;-65
2023/12/30 00:18:31;;;;;;;1.80;0.80;;;18.10;62.70;;;;;;4985717;28;20042;-65
2023/12/30 00:20:57;;;;;;;3.08;0.63;;;18.10;62.70;;;;;;4987263;28;20053;-65
2023/12/30 00:23:23;;;;;;;1.42;0.73;;;18.10;62.70;;;;;;5001134;28;20030;-64
2023/12/30 00:25:48;;;;;;;1.73;0.85;;;18.10;62.70;;;;;;5007342;28;20034;-65
2023/12/30 00:28:14;;;;;;;1.50;0.80;;;18.10;62.80;;;;;;5005950;28;20061;-64
2023/12/30 00:30:39;;;;;;;3.00;0.57;;;18.10;62.80;;;;;;5007203;28;20022;-65
2023/12/30 00:33:05;;;;;;;1.70;1.10;;;18.10;62.70;;;;;;5003006;28;20031;-65
2023/12/30 00:35:31;;;;;;;2.97;0.65;;;18.10;62.70;;;;;;4991795;28;20145;-65
2023/12/30 00:37:56;;;;;;;1.63;1.00;;;18.10;62.70;;;;;;4987057;28;20125;-65
2023/12/30 00:40:22;;;;;;;2.03;0.82;;;18.10;62.70;;;;;;4985900;28;20042;-65
2023/12/30 00:42:47;;;;;;;0.80;0.65;;;18.10;62.70;;;;;;4986570;28;20034;-61
2023/12/30 00:45:13;;;;;;;1.20;0.77;;;18.10;62.80;;;;;;4989898;28;20034;-64
2023/12/30 00:47:38;;;;;;;1.20;0.77;;;18.10;62.70;;;;;;4986598;28;20060;-65
2023/12/30 00:50:04;;;;;;;1.17;1.02;;;18.10;62.70;;;;;;4990242;28;20026;-65
2023/12/30 00:52:30;;;;;;;0.80;0.50;;;18.10;62.70;;;;;;4986909;28;20635;-66
2023/12/30 00:54:55;;;;;;;3.10;0.73;;;18.10;62.70;;;;;;4989553;28;20515;-65
2023/12/30 00:57:20;;;;;;;0.70;0.52;;;18.10;62.70;;;;;;4989620;28;20045;-66
2023/12/30 00:59:46;;;;;;;1.27;0.55;;;18.10;62.70;;;;;;4989909;28;20424;-61
2023/12/30 01:02:11;;;;;;;3.35;0.80;;;18.10;62.70;;;;;;4989460;28;20047;-65
2023/12/30 01:04:37;;;;;;;1.05;0.52;;;18.10;62.70;;;;;;4988111;28;20048;-65
2023/12/30 01:07:03;;;;;;;1.90;0.50;;;18.10;62.70;;;;;;4990009;28;20045;-65
2023/12/30 01:09:28;;;;;;;1.58;0.95;;;18.10;62.70;;;;;;4988176;28;20058;-66
2023/12/30 01:11:53;;;;;;;1.38;0.70;;;18.10;62.70;;;;;;4989192;28;20038;-65
2023/12/30 01:14:19;;;;;;;1.60;0.60;;;18.10;62.70;;;;;;4987647;28;20027;-65
2023/12/30 01:16:45;;;;;;;1.88;0.90;;;18.10;62.70;;;;;;4988560;28;20490;-65
2023/12/30 01:19:11;;;;;;;0.77;0.70;;;18.10;62.70;;;;;;4988504;28;20062;-65
2023/12/30 01:21:36;;;;;;;1.17;0.40;;;18.10;62.70;;;;;;4988008;28;20054;-65
2023/12/30 01:24:02;;;;;;;0.88;0.70;;;18.10;62.70;;;;;;4988260;28;20061;-65
2023/12/30 01:26:27;;;;;;;0.75;0.50;;;18.10;62.70;;;;;;4987531;28;20030;-66
2023/12/30 01:28:53;;;;;;;1.30;0.80;;;18.10;62.70;;;;;;4988279;28;20033;-65
2023/12/30 01:31:18;;;;;;;1.05;0.60;;;18.10;62.70;;;;;;4993393;28;20030;-65
2023/12/30 01:33:44;;;;;;;1.15;0.80;;;18.10;62.70;;;;;;4988365;28;20022;-65
2023/12/30 01:36:11;;;;;;;1.30;0.55;;;18.10;62.60;;;;;;4993332;28;20034;-65
2023/12/30 01:38:36;;;;;;;0.73;0.60;;;18.10;62.60;;;;;;4987371;28;20516;-65
2023/12/30 01:41:02;;;;;;;1.45;0.82;;;18.10;62.60;;;;;;4987514;28;20026;-65
2023/12/30 01:43:29;;;;;;;0.88;0.60;;;18.10;62.70;;;;;;4987381;28;20622;-66
2023/12/30 01:45:59;;;;;;;0.70;0.60;;;18.10;62.60;;;;;;4988295;28;20050;-65
2023/12/30 01:48:24;;;;;;;1.15;0.60;;;18.10;62.70;;;;;;4987475;28;20419;-65
2023/12/30 01:50:52;;;;;;;1.50;0.50;;;18.10;62.60;;;;;;4988752;28;20035;-65
2023/12/30 01:53:19;;;;;;;1.00;0.68;;;18.10;62.60;;;;;;4988946;28;20062;-65
2023/12/30 01:55:49;;;;;;;1.10;0.70;;;18.10;62.70;;;;;;4987784;28;20481;-65
2023/12/30 01:58:14;;;;;;;0.70;0.57;;;18.10;62.60;;;;;;4987846;28;20104;-63
2023/12/30 02:00:41;;;;;;;1.33;0.70;;;18.10;62.70;;;;;;4990280;28;20639;-65
2023/12/30 02:03:07;;;;;;;2.85;0.88;;;18.10;62.70;;;;;;4968343;28;20031;-62
2023/12/30 02:05:33;;;;;;;1.10;0.70;;;18.10;62.70;;;;;;4986450;28;20085;-66
2023/12/30 02:07:59;;;;;;;0.60;0.60;;;18.10;62.60;;;;;;4985037;28;20034;-66
2023/12/30 02:10:24;;;;;;;1.40;0.82;;;18.10;62.60;;;;;;4983742;28;20026;-65
2023/12/30 02:12:50;;;;;;;2.22;0.60;;;18.10;62.60;;;;;;4984507;28;20027;-65
2023/12/30 02:15:21;;;;;;;1.30;0.60;;;18.10;62.60;;;;;;4981918;28;20060;-64
2023/12/30 02:17:50;;;;;;;1.58;0.60;;;18.10;62.60;;;;;;4985287;28;20061;-65
2023/12/30 02:20:15;;;;;;;0.82;0.50;;;18.10;62.60;;;;;;4982921;28;20035;-63
2023/12/30 02:22:44;;;;;;;3.60;0.77;;;18.10;62.60;;;;;;4984368;28;20022;-65
2023/12/30 02:25:10;;;;;;;1.02;0.45;;;18.10;62.60;;;;;;4966723;28;20126;-65
2023/12/30 02:27:35;;;;;;;0.70;0.35;;;18.10;62.60;;;;;;4983310;28;20413;-65
2023/12/30 02:30:01;;;;;;;0.93;0.63;;;18.20;62.60;;;;;;4984570;28;20421;-65
2023/12/30 02:32:26;;;;;;;0.40;0.40;;;18.20;62.60;;;;;;4990244;28;20085;-65
2023/12/30 02:34:51;;;;;;;1.00;0.75;;;18.10;62.60;;;;;;4982966;28;20061;-65
2023/12/30 02:37:17;;;;;;;1.15;0.65;;;18.10;62.60;;;;;;4983508;28;20038;-65
2023/12/30 02:39:42;;;;;;;1.10;0.60;;;18.10;62.50;;;;;;4983925;28;20030;-64
2023/12/30 02:42:08;;;;;;;0.40;0.32;;;18.10;62.60;;;;;;4990023;28;20176;-65
2023/12/30 02:44:33;;;;;;;0.90;0.60;;;18.20;63.20;;;;;;4986554;28;20053;-66
2023/12/30 02:46:59;;;;;;;0.52;0.40;;;18.20;62.60;;;;;;4989833;28;20026;-65
2023/12/30 02:49:24;;;;;;;0.90;0.70;;;18.10;62.60;;;;;;4987744;28;20031;-65
2023/12/30 02:51:50;;;;;;;0.98;0.40;;;18.10;62.60;;;;;;4978565;28;20042;-65
2023/12/30 02:54:15;;;;;;;0.82;0.55;;;18.10;62.70;;;;;;4988686;28;20022;-61
2023/12/30 02:56:41;;;;;;;0.90;0.38;;;18.10;62.70;;;;;;4987274;28;20033;-65
2023/12/30 02:59:06;;;;;;;0.70;0.50;;;18.10;62.70;;;;;;4989460;28;20046;-65
2023/12/30 03:01:32;;;;;;;0.40;0.40;;;18.10;62.70;;;;;;4986820;28;20038;-66
2023/12/30 03:04:00;;;;;;;0.65;0.50;;;18.10;62.70;;;;;;4990032;28;20034;-65
2023/12/30 03:06:26;;;;;;;0.68;0.30;;;18.10;62.70;;;;;;4986295;28;20474;-67
2023/12/30 03:08:52;;;;;;;0.75;0.50;;;18.10;62.70;;;;;;4987760;28;20114;-67
2023/12/30 03:11:18;;;;;;;2.63;0.52;;;18.10;62.70;;;;;;4987162;28;20118;-65
2023/12/30 03:13:44;;;;;;;0.60;0.40;;;18.10;62.70;;;;;;4987838;28;20085;-66
2023/12/30 03:16:14;;;;;;;1.33;0.60;;;18.10;62.70;;;;;;4987833;28;20038;-66
2023/12/30 03:18:40;;;;;;;0.45;0.40;;;18.10;62.70;;;;;;4988397;28;20257;-66
2023/12/30 03:21:09;;;;;;;1.42;0.35;;;18.10;62.60;;;;;;4986973;28;20035;-66
2023/12/30 03:23:36;;;;;;;0.70;0.35;;;18.10;62.60;;;;;;4986947;28;20121;-65
2023/12/30 03:26:02;;;;;;;1.95;0.60;;;18.10;62.60;;;;;;4985941;28;20030;-66
2023/12/30 03:28:28;;;;;;;0.55;0.50;;;18.10;62.60;;;;;;4986253;28;20045;-66
2023/12/30 03:30:53;;;;;;;0.50;0.32;;;18.10;62.60;;;;;;4969172;28;20393;-67
2023/12/30 03:33:19;;;;;;;0.52;0.40;;;18.10;62.60;;;;;;4991029;28;20033;-66
2023/12/30 03:35:45;;;;;;;0.80;0.70;;;18.10;62.60;;;;;;4985993;28;20375;-67
2023/12/30 03:38:10;;;;;;;0.90;0.50;;;18.10;62.60;;;;;;4986372;28;20069;-67
2023/12/30 03:40:36;;;;;;;1.50;0.50;;;18.10;62.60;;;;;;4985188;28;20042;-68
2023/12/30 03:43:01;;;;;;;0.88;0.38;;;18.10;62.50;;;;;;4972736;28;20037;-68
2023/12/30 03:45:27;;;;;;;0.65;0.50;;;18.10;62.50;;;;;;4986372;28;20509;-67
2023/12/30 03:47:52;;;;;;;0.73;0.63;;;18.10;62.50;;;;;;4987816;28;20109;-67
2023/12/30 03:50:18;;;;;;;2.20;0.55;;;18.10;62.50;;;;;;4986577;28;20051;-65
2023/12/30 03:52:44;;;;;;;0.82;0.63;;;18.10;62.40;;;;;;4985834;28;20489;-67
2023/12/30 03:55:09;;;;;;;0.47;0.38;;;18.10;62.50;;;;;;4985425;28;20031;-67
2023/12/30 03:57:35;;;;;;;0.50;0.40;;;18.10;62.50;;;;;;4984163;28;20441;-68
2023/12/30 04:00:00;;;;;;;0.43;0.40;;;18.10;62.40;;;;;;4987928;28;20037;-67
2023/12/30 04:02:26;;;;;;;0.80;0.50;;;18.10;62.50;;;;;;4968334;28;20798;-67
2023/12/30 04:04:52;;;;;;;2.45;0.50;;;18.10;62.50;;;;;;4987470;28;20022;-67
2023/12/30 04:07:17;;;;;;;0.60;0.30;;;18.10;62.40;;;;;;4984986;28;20026;-64
2023/12/30 04:09:43;;;;;;;0.40;0.35;;;18.10;62.50;;;;;;4985775;28;20038;-67
2023/12/30 04:12:09;;;;;;;1.73;0.55;;;18.10;62.40;;;;;;4985959;28;20041;-67
2023/12/30 04:14:35;;;;;;;1.23;0.30;;;18.10;62.50;;;;;;4985797;28;20378;-67
2023/12/30 04:17:01;;;;;;;0.63;0.40;;;18.10;62.40;;;;;;4985827;28;20084;-68
2023/12/30 04:19:26;;;;;;;1.33;0.50;;;18.10;62.40;;;;;;4985790;28;20046;-67
2023/12/30 04:21:52;;;;;;;0.30;0.30;;;18.10;62.40;;;;;;4985860;28;20035;-67
2023/12/30 04:24:18;;;;;;;1.75;0.75;;;18.10;62.40;;;;;;4985019;28;20042;-64
2023/12/30 04:26:44;;;;;;;1.08;0.50;;;18.10;62.40;;;;;;4984943;28;20034;-67
2023/12/30 04:29:10;;;;;;;1.23;0.40;;;18.10;62.40;;;;;;4985157;28;20588;-67
2023/12/30 04:31:36;;;;;;;1.23;0.52;;;18.00;62.20;;;;;;4984612;28;20034;-68
2023/12/30 04:34:02;;;;;;;0.80;0.50;;;18.10;62.30;;;;;;4985524;28;20038;-67
2023/12/30 04:36:27;;;;;;;1.33;0.40;;;18.10;62.40;;;;;;4985246;28;20058;-67
2023/12/30 04:38:53;;;;;;;1.27;0.55;;;18.10;62.30;;;;;;4991966;28;20497;-65
2023/12/30 04:41:18;;;;;;;0.40;0.30;;;18.10;62.30;;;;;;4989111;28;20034;-66
2023/12/30 04:43:44;;;;;;;0.43;0.40;;;18.00;62.30;;;;;;4988911;28;20034;-67
2023/12/30 04:46:13;;;;;;;0.93;0.40;;;18.10;62.30;;;;;;4987292;28;20690;-67
2023/12/30 04:48:39;;;;;;;0.85;0.30;;;18.00;62.30;;;;;;4988887;28;20070;-67
2023/12/30 04:51:05;;;;;;;1.13;0.40;;;18.10;62.30;;;;;;4991079;28;20034;-67
2023/12/30 04:53:30;;;;;;;1.13;0.60;;;18.00;62.20;;;;;;4988370;28;20031;-68
2023/12/30 04:55:56;;;;;;;0.45;0.30;;;18.00;62.30;;;;;;4992366;28;20065;-67
2023/12/30 04:58:21;;;;;;;0.68;0.50;;;18.00;62.30;;;;;;4988303;28;20069;-67
2023/12/30 05:00:47;;;;;;;0.60;0.50;;;18.00;62.30;;;;;;4991184;28;20034;-68
2023/12/30 05:03:14;;;;;;;0.73;0.30;;;18.00;62.30;;;;;;4971533;28;20125;-68
2023/12/30 05:05:39;;;;;;;0.82;0.68;;;18.00;62.90;;;;;;4989700;28;20089;-67
2023/12/30 05:08:06;;;;;;;0.55;0.43;;;18.10;62.30;;;;;;4988166;28;20026;-67
2023/12/30 05:10:31;;;;;;;0.82;0.47;;;18.00;62.20;;;;;;4987777;28;20038;-67
2023/12/30 05:12:57;;;;;;;0.85;0.40;;;18.00;62.20;;;;;;4989001;28;20586;-67
2023/12/30 05:15:22;;;;;;;1.80;0.40;;;18.00;62.30;;;;;;4988085;28;20031;-67
2023/12/30 05:17:48;;;;;;;1.38;0.60;;;18.00;62.30;;;;;;4988028;28;20031;-67
2023/12/30 05:20:16;;;;;;;0.38;0.35;;;18.00;62.30;;;;;;4988132;28;20465;-67
2023/12/30 05:22:42;;;;;;;0.88;0.40;;;18.00;62.20;;;;;;4987695;28;20111;-67
2023/12/30 05:25:07;;;;;;;0.55;0.40;;;18.00;62.20;;;;;;4988819;28;20038;-67
2023/12/30 05:27:33;;;;;;;0.50;0.30;;;18.00;62.20;;;;;;4987423;28;20030;-67
2023/12/30 05:29:58;;;;;;;0.50;0.30;;;18.00;62.20;;;;;;4988559;28;20116;-67
2023/12/30 05:32:24;;;;;;;0.47;0.32;;;18.00;62.20;;;;;;4987520;28;20397;-67
2023/12/30 05:34:49;;;;;;;0.30;0.30;;;18.00;62.20;;;;;;4987908;28;20509;-67
2023/12/30 05:37:14;;;;;;;0.60;0.30;;;18.00;62.20;;;;;;4987410;28;20084;-67
2023/12/30 05:39:40;;;;;;;1.40;0.50;;;18.00;62.30;;;;;;4986868;28;20050;-67
2023/12/30 05:42:06;;;;;;;0.70;0.40;;;18.00;62.20;;;;;;4970574;28;20037;-67
2023/12/30 05:44:31;;;;;;;0.57;0.30;;;18.10;62.20;;;;;;4986817;28;20456;-68
2023/12/30 05:46:57;;;;;;;0.50;0.50;;;18.00;62.20;;;;;;4988426;28;20092;-67
2023/12/30 05:49:22;;;;;;;0.65;0.35;;;18.10;62.20;;;;;;4986762;28;20519;-67
2023/12/30 05:51:49;;;;;;;1.10;0.60;;;18.10;62.20;;;;;;4988303;28;20034;-67
2023/12/30 05:54:15;;;;;;;0.70;0.40;;;18.00;62.20;;;;;;4987114;28;20038;-67
2023/12/30 05:56:40;;;;;;;1.75;0.57;;;18.10;62.20;;;;;;4989250;28;20041;-67
2023/12/30 05:59:06;;;;;;;1.23;0.60;;;18.00;62.10;;;;;;4986588;28;20062;-67
2023/12/30 06:01:31;;;;;;;0.77;0.30;;;18.00;62.10;;;;;;4969783;28;20076;-66
2023/12/30 06:03:58;;;;;;;0.88;0.50;;;18.10;62.20;;;;;;4986932;28;20460;-66
2023/12/30 06:06:23;;;;;;;1.05;0.70;;;18.00;62.10;;;;;;4988223;28;20026;-66
2023/12/30 06:08:49;;;;;;;2.17;0.50;;;18.10;62.10;;;;;;4987436;28;20101;-65
2023/12/30 06:11:14;;;;;;;1.20;0.50;;;18.10;62.00;;;;;;4970951;28;20068;-66
2023/12/30 06:13:41;;;;;;;0.73;0.45;;;18.20;62.00;;;;;;4986511;28;21361;-66
2023/12/30 06:16:08;;;;;;;0.75;0.30;;;18.10;62.00;;;;;;4987238;28;20109;-66
2023/12/30 06:18:34;;;;;;;1.35;0.50;;;18.10;62.00;;;;;;4986279;28;20513;-66
2023/12/30 06:20:59;;;;;;;1.13;0.38;;;18.20;62.00;;;;;;4987677;28;20030;-66
2023/12/30 06:23:28;;;;;;;1.92;0.30;;;18.10;61.80;;;;;;4991717;28;20617;-66
2023/12/30 06:25:54;;;;;;;1.13;0.50;;;18.20;61.80;;;;;;4987278;28;20092;-66
2023/12/30 06:28:20;;;;;;;0.55;0.40;;;18.20;61.80;;;;;;4986514;28;20432;-66
2023/12/30 06:30:46;;;;;;;0.47;0.40;;;18.20;61.80;;;;;;4986563;28;20031;-66
2023/12/30 06:33:12;;;;;;;2.00;0.30;;;18.20;61.70;;;;;;4985982;28;20526;-67
2023/12/30 06:35:38;;;;;;;5.80;0.52;;;18.20;61.60;;;;;;4984226;28;20110;-66
2023/12/30 06:38:03;;;;;;;1.00;0.50;;;18.30;61.60;;;;;;4986226;28;20183;-65
2023/12/30 06:40:29;;;;;;;1.02;0.50;;;18.30;61.60;;;;;;4986197;28;20035;-66
2023/12/30 06:42:54;;;;;;;2.58;0.63;;;18.30;61.50;;;;;;4991358;28;20077;-66
2023/12/30 06:45:20;;;;;;;0.40;0.20;;;18.30;61.40;;;;;;4968467;28;20041;-66
2023/12/30 06:47:45;;;;;;;2.75;0.68;;;18.30;61.40;;;;;;4990220;28;20611;-64
2023/12/30 06:50:14;;;;;;;0.98;0.40;;;18.30;61.40;;;;;;4985169;28;20045;-62
2023/12/30 06:52:40;;;;;;;0.75;0.35;;;18.30;61.40;;;;;;4985423;28;20026;-66
2023/12/30 06:55:07;;;;;;;1.80;0.30;;;18.30;61.40;;;;;;4985755;28;20046;-66
2023/12/30 06:57:33;;;;;;;1.67;0.32;;;18.30;61.40;;;;;;4988421;28;20026;-66
2023/12/30 06:59:58;;;;;;;1.70;0.63;;;18.30;61.30;;;;;;4985595;28;20093;-66
2023/12/30 07:02:24;;;;;;;0.98;0.28;;;18.30;61.30;;;;;;4985146;28;20035;-65
2023/12/30 07:04:49;;;;;;;0.55;0.35;;;18.30;61.40;;;;;;4985643;28;20121;-66
2023/12/30 07:07:14;;;;;;;2.33;0.50;;;18.20;61.30;;;;;;4970118;28;20505;-65
2023/12/30 07:09:40;;;;;;;1.45;0.63;;;18.30;61.40;;;;;;4985084;28;20109;-61
2023/12/30 07:12:07;;;;;;;1.08;0.32;;;18.20;61.40;;;;;;4986985;28;20077;-61
2023/12/30 07:14:35;;;;;;;0.55;0.32;;;18.20;61.40;;;;;;4983063;28;20038;-66
2023/12/30 07:17:00;;;;;;;1.23;0.40;;;18.20;61.40;;;;;;4985633;28;20093;-66
2023/12/30 07:19:26;;;;;;;1.27;0.60;;;18.20;61.40;;;;;;4985359;28;20038;-66
2023/12/30 07:21:52;;;;;;;1.50;0.93;;;18.20;61.40;;;;;;4985254;28;20031;-66
2023/12/30 07:24:18;;;;;;;0.55;0.30;;;18.20;61.50;;;;;;4968480;28;20030;-66
2023/12/30 07:26:44;;;;;;;0.60;0.30;;;18.20;61.50;;;;;;4985950;28;20050;-66
2023/12/30 07:29:10;;;;;;;0.60;0.30;;;18.20;61.50;;;;;;4985248;28;20142;-66
2023/12/30 07:31:36;;;;;;;0.50;0.40;;;18.20;61.50;;;;;;4984356;28;20030;-65
2023/12/30 07:34:04;;;;;;;1.05;0.50;;;18.20;61.50;;;;;;4985112;28;20033;-66
2023/12/30 07:36:30;;;;;;;0.77;0.40;;;18.20;61.50;;;;;;4984490;28;20030;-65
2023/12/30 07:38:56;;;;;;;0.50;0.30;;;18.20;61.50;;;;;;4985072;28;20409;-66
2023/12/30 07:41:22;;;;;;;0.43;0.17;;;18.20;61.40;;;;;;4984679;28;20117;-62
2023/12/30 07:43:48;;;;;;;0.50;0.30;;;18.20;61.40;;;;;;4967787;28;20118;-66
2023/12/30 07:46:14;;;;;;;0.50;0.22;;;18.20;61.40;;;;;;4984784;28;20034;-65
2023/12/30 07:48:40;;;;;;;0.75;0.60;;;18.20;61.40;;;;;;4985017;28;20113;-65
2023/12/30 07:51:05;;;;;;;0.90;0.30;;;18.20;61.40;;;;;;4985407;28;20117;-65
2023/12/30 07:53:31;;;;;;;0.68;0.38;;;18.20;61.40;;;;;;4985129;28;20545;-62
2023/12/30 07:55:57;;;;;;;0.52;0.40;;;18.20;61.40;;;;;;4985803;28;20035;-59
2023/12/30 07:58:23;;;;;;;0.50;0.45;;;18.20;61.40;;;;;;4985571;28;20033;-65
2023/12/30 08:00:48;;;;;;;0.40;0.40;;;18.20;61.40;;;;;;4975553;28;20034;-65
2023/12/30 08:03:14;;;;;;;1.85;0.47;;;18.20;61.30;;;;;;4984864;28;20045;-65
2023/12/30 08:05:39;;;;;;;1.50;0.60;;;18.20;61.40;;;;;;4981154;28;20030;-65
2023/12/30 08:08:06;;;;;;;1.33;0.63;;;18.20;61.40;;;;;;4987316;28;20105;-65
2023/12/30 08:10:32;;;;;;;1.13;0.40;;;18.20;61.40;;;;;;4980764;28;20180;-62
2023/12/30 08:12:58;;;;;;;4.43;0.65;;;18.20;61.50;;;;;;4968448;28;20030;-66
2023/12/30 08:15:24;;;;;;;1.23;0.30;;;18.20;61.50;;;;;;4984330;28;20049;-64
2023/12/30 08:17:50;;;;;;;1.75;0.55;;;18.30;61.70;;;;;;4985713;28;20058;-66
2023/12/30 08:20:15;;;;;;;1.08;0.30;;;18.20;61.80;;;;;;4987820;28;20042;-66
2023/12/30 08:22:41;;;;;;;4.22;0.68;;;18.20;61.80;;;;;;4985197;28;20023;-66
2023/12/30 08:25:08;;;;;;;3.67;0.45;;;18.30;61.90;;;;;;4986177;28;20034;-61
2023/12/30 08:27:34;;;;;;;2.72;0.43;;;18.20;61.90;;;;;;4987647;28;20512;-66
2023/12/30 08:29:59;;;;;;;5.18;0.80;;;18.30;62.00;;;;;;4985458;28;21727;-65
2023/12/30 08:32:25;;;;;;;1.17;0.57;;;18.20;62.00;;;;;;4989792;28;20121;-65
2023/12/30 08:34:50;;;;;;;3.22;0.65;;;18.30;62.20;;;;;;4989434;28;20031;-65
2023/12/30 08:37:16;;;;;;;5.10;1.67;;;18.20;62.30;;;;;;4989475;28;20033;-64
2023/12/30 08:39:42;;;;;;;8.18;1.35;;;18.20;62.40;;;;;;4989516;28;20030;-61
2023/12/30 08:42:09;;;;;;;3.40;1.50;;;18.20;62.30;;;;;;4989900;28;20030;-65
2023/12/30 08:44:40;;;;;;;2.38;0.98;;;18.10;62.20;;;;;;4987804;28;20033;-67
2023/12/30 08:47:06;;;;;;;3.63;1.23;;;18.10;62.20;;;;;;4999514;28;20026;-67
2023/12/30 08:49:31;;;;;;;2.22;1.05;;;18.10;62.20;;;;;;4991218;28;20042;-66
2023/12/30 08:51:58;;;;;;;4.05;1.33;;;18.10;62.20;;;;;;4991304;28;20045;-66
2023/12/30 08:54:24;;;;;;;5.18;1.15;;;18.10;62.20;;;;;;4994999;28;20041;-64
2023/12/30 08:56:53;;;;;;;2.55;1.42;;;18.00;62.10;;;;;;4990306;28;20038;-62
2023/12/30 08:59:19;;;;;;;1.85;1.10;;;18.10;62.00;;;;;;4989962;28;20041;-66
2023/12/30 09:01:45;;;;;;;3.08;1.15;;;18.10;62.10;;;;;;4987942;28;20121;-66
2023/12/30 09:04:10;;;;;;;5.40;1.35;;;18.10;62.00;;;;;;4991503;28;20044;-66
2023/12/30 09:06:36;;;;;;;2.75;1.10;;;18.10;62.00;;;;;;4987850;28;20033;-66
2023/12/30 09:09:04;;;;;;;5.10;1.10;;;18.10;62.00;;;;;;4991189;28;20097;-66
2023/12/30 09:11:30;;;;;;;2.28;0.90;;;18.00;61.90;;;;;;4988533;28;20061;-66
2023/12/30 09:13:55;;;;;;;6.97;1.40;;;18.00;61.90;;;;;;4989409;28;20080;-65
2023/12/30 09:16:21;;;;;;;1.77;1.00;;;18.00;61.90;;;;;;4988252;28;20031;-66
2023/12/30 09:18:46;;;;;;;4.43;1.20;;;18.00;61.90;;;;;;4987173;28;20037;-66
2023/12/30 09:21:12;;;;;;;3.70;1.25;;;18.00;61.90;;;;;;4988287;28;20038;-66
2023/12/30 09:23:38;;;;;;;2.70;1.38;;;18.00;61.90;;;;;;4987388;28;20533;-65
2023/12/30 09:26:04;;;;;;;3.00;1.73;;;18.00;62.50;;;;;;4988520;28;20077;-65
2023/12/30 09:28:29;;;;;;;1.67;1.00;;;18.00;61.90;;;;;;4989624;28;20076;-65
2023/12/30 09:30:55;;;;;;;5.40;1.30;;;18.00;61.90;;;;;;4971921;28;21018;-66
2023/12/30 09:33:20;;;;;;;3.03;1.17;;;18.00;61.90;;;;;;4977162;28;20045;-67
2023/12/30 09:35:46;;;;;;;1.77;1.00;;;18.00;61.90;;;;;;4988395;28;20469;-66
2023/12/30 09:38:11;;;;;;;3.92;1.40;;;18.00;61.90;;;;;;4988344;28;20107;-66
2023/12/30 09:40:36;;;;;;;4.93;1.27;;;18.00;61.90;;;;;;4985887;28;20039;-66
2023/12/30 09:43:04;;;;;;;3.13;1.38;;;18.00;61.90;;;;;;4990789;28;20034;-66
2023/12/30 09:45:31;;;;;;;25.88;11.98;;;18.00;61.90;;;;;;4988485;28;20050;-66
2023/12/30 09:47:59;;;;;;;46.28;20.40;;;18.00;63.30;;;;;;4987457;28;20030;-66
2023/12/30 09:50:27;;;;;;;38.95;19.48;;;18.10;64.00;;;;;;4988070;28;20042;-65
2023/12/30 09:52:52;;;;;;;45.40;21.48;;;18.10;64.00;;;;;;4987689;28;20511;-66
2023/12/30 09:55:18;;;;;;;42.60;20.25;;;18.20;64.00;;;;;;4988545;28;20035;-65
2023/12/30 09:57:45;;;;;;;36.65;19.20;;;18.20;64.10;;;;;;4986741;28;20027;-66
2023/12/30 10:00:15;;;;;;;37.50;18.25;;;18.20;64.20;;;;;;4976825;28;20027;-65
2023/12/30 10:02:41;;;;;;;44.70;18.45;;;18.20;64.30;;;;;;4984652;28;20708;-67
2023/12/30 10:05:07;;;;;;;34.65;17.05;;;18.20;64.80;;;;;;4982516;28;20045;-65
2023/12/30 10:07:34;;;;;;;41.65;17.65;;;18.30;64.70;;;;;;4980774;28;20030;-64
2023/12/30 10:09:59;;;;;;;36.42;17.15;;;18.10;64.00;;;;;;4970702;28;20042;-65
2023/12/30 10:12:25;;;;;;;35.28;16.60;;;18.00;64.10;;;;;;4983009;28;20031;-64
2023/12/30 10:14:50;;;;;;;31.95;16.77;;;17.90;64.30;;;;;;4983424;28;20030;-65
2023/12/30 10:17:17;;;;;;;32.38;17.00;;;17.90;64.10;;;;;;4982609;28;20070;-64
2023/12/30 10:19:44;;;;;;;38.15;16.13;;;17.80;63.90;;;;;;4982321;28;20121;-64
2023/12/30 10:22:09;;;;;;;33.70;16.52;;;17.80;63.90;;;;;;4984298;28;20050;-63
2023/12/30 10:24:35;;;;;;;33.22;16.48;;;17.80;63.90;;;;;;4990252;28;20401;-65
2023/12/30 10:27:04;;;;;;;28.30;14.32;;;17.70;63.60;;;;;;4967533;28;20030;-65
2023/12/30 10:29:30;;;;;;;29.83;14.85;;;17.70;63.60;;;;;;4986624;28;20117;-66
2023/12/30 10:32:00;;;;;;;30.35;15.20;;;17.70;63.60;;;;;;4985369;28;20042;-65
2023/12/30 10:34:27;;;;;;;29.42;14.00;;;17.70;63.60;;;;;;4985218;28;20709;-64
2023/12/30 10:36:53;;;;;;;29.45;14.45;;;17.70;63.50;;;;;;4982792;28;20027;-65
2023/12/30 10:39:24;;;;;;;28.88;15.02;;;17.70;63.50;;;;;;4986033;28;20031;-65
2023/12/30 10:41:50;;;;;;;25.27;13.80;;;17.70;63.40;;;;;;4986058;28;20093;-66
2023/12/30 10:44:15;;;;;;;27.95;14.45;;;17.70;63.40;;;;;;4971518;28;20109;-65
2023/12/30 10:46:46;;;;;;;25.80;13.98;;;17.70;63.30;;;;;;4990366;28;20120;-65
2023/12/30 10:49:15;;;;;;;27.83;12.55;;;17.70;63.20;;;;;;4986582;28;20577;-65
2023/12/30 10:51:43;;;;;;;24.52;12.50;;;17.70;63.10;;;;;;4987629;28;20037;-65
2023/12/30 10:54:14;;;;;;;22.60;13.27;;;17.70;63.10;;;;;;4982857;28;20104;-63
2023/12/30 10:56:57;;;;;;;22.73;12.77;;;17.70;63.10;;;;;;5031308;27;20759;-49
2023/12/30 10:59:25;;;;;;;20.45;12.23;;;17.70;63.10;;;;;;5030614;28;20522;-48
2023/12/30 11:01:51;;;;;;;21.92;11.82;;;17.70;63.10;;;;;;5024461;28;20025;-47
2023/12/30 11:04:17;;;;;;;20.25;11.50;;;17.70;63.10;;;;;;5070288;28;20135;-48
2023/12/30 11:06:53;;;;;;;19.88;11.38;;;17.70;63.20;;;;;;5070266;28;20405;-46
2023/12/30 11:09:23;;;;;;;21.35;10.27;;;17.70;63.00;;;;;;5067897;28;20036;-49
2023/12/30 11:11:52;;;;;;;18.38;10.38;;;17.70;63.00;;;;;;5065311;28;20040;-46
2023/12/30 11:14:19;;;;;;;17.65;10.45;;;17.70;63.00;;;;;;5072557;28;20094;-51
2023/12/30 11:16:46;;;;;;;19.63;10.23;;;17.60;63.00;;;;;;5073715;28;20029;-49
2023/12/30 11:19:27;;;;;;;22.30;10.43;;;17.60;62.90;;;;;;5075351;28;20031;-52
2023/12/30 11:21:55;;;;;;;20.40;9.95;;;17.60;63.00;;;;;;5071998;28;20479;-49
2023/12/30 11:24:21;;;;;;;20.83;11.05;;;17.60;62.90;;;;;;5073676;28;20032;-48
2023/12/30 11:26:46;;;;;;;17.80;10.40;;;17.60;63.00;;;;;;5072917;28;20118;-48
2023/12/30 11:29:14;;;;;;;20.77;9.55;;;17.60;63.00;;;;;;5072465;28;20659;-50
2023/12/30 11:31:42;;;;;;;16.98;9.65;;;17.60;63.00;;;;;;5074800;28;20127;-48
2023/12/30 11:34:09;;;;;;;17.88;9.48;;;17.60;63.00;;;;;;5075932;28;20036;-47
2023/12/30 11:36:35;;;;;;;18.48;9.60;;;17.60;63.00;;;;;;5080485;28;20036;-46
2023/12/30 11:39:00;;;;;;;18.65;10.02;;;17.60;63.20;;;;;;5074596;28;20032;-49
2023/12/30 11:41:28;;;;;;;15.75;8.95;;;17.60;62.90;;;;;;5074467;28;20047;-49
2023/12/30 11:44:02;;;;;;;22.17;10.20;;;17.70;62.70;;;;;;5072531;28;20032;-50
2023/12/30 11:46:29;;;;;;;16.55;9.32;;;17.80;62.40;;;;;;5071470;28;20036;-47
2023/12/30 11:48:58;;;;;;;16.50;8.18;;;17.90;62.10;;;;;;5074446;28;20033;-49
2023/12/30 11:51:29;;;;;;;16.30;8.70;;;18.10;61.80;;;;;;5069394;28;20029;-49
2023/12/30 11:53:55;;;;;;;12.82;8.40;;;18.20;61.20;;;;;;5068769;28;20032;-49
2023/12/30 11:56:24;;;;;;;12.98;7.95;;;18.40;60.80;;;;;;5071297;28;20169;-50
2023/12/30 11:58:51;;;;;;;16.17;8.65;;;18.60;60.30;;;;;;5073702;28;20024;-50
2023/12/30 12:01:20;;;;;;;16.80;8.25;;;18.80;60.00;;;;;;5076322;28;20029;-49
2023/12/30 12:03:46;;;;;;;13.98;8.45;;;18.90;59.60;;;;;;5076659;28;20489;-48
2023/12/30 12:06:13;;;;;;;13.85;6.97;;;19.10;59.40;;;;;;5070412;28;20036;-50
2023/12/30 12:08:41;;;;;;;13.75;7.60;;;19.20;59.10;;;;;;5058644;28;20060;-48
2023/12/30 12:11:07;;;;;;;17.13;8.20;;;19.30;58.80;;;;;;5060172;28;20040;-57
2023/12/30 12:13:32;;;;;;;14.50;8.18;;;19.40;58.50;;;;;;5059361;28;20035;-48
2023/12/30 12:15:58;;;;;;;13.43;7.45;;;19.50;58.50;;;;;;5051411;28;20037;-50
2023/12/30 12:18:24;;;;;;;17.10;8.93;;;19.50;58.30;;;;;;5057306;28;20029;-49
2023/12/30 12:20:50;;;;;;;14.73;7.53;;;19.60;58.40;;;;;;5054145;28;20052;-50
2023/12/30 12:23:16;;;;;;;13.00;7.57;;;19.60;58.40;;;;;;5060942;28;20036;-48
2023/12/30 12:25:43;;;;;;;14.20;6.97;;;19.50;58.50;;;;;;5060585;28;20498;-49
2023/12/30 12:28:10;;;;;;;12.63;6.63;;;19.50;58.50;;;;;;5059030;28;20036;-50
2023/12/30 12:30:36;;;;;;;12.90;6.10;;;19.40;58.70;;;;;;5058119;28;20045;-49
2023/12/30 12:33:02;;;;;;;12.85;6.85;;;19.40;58.90;;;;;;5057868;28;20040;-50
2023/12/30 12:35:27;;;;;;;10.43;6.80;;;19.30;58.90;;;;;;5059844;28;20044;-51
2023/12/30 12:37:53;;;;;;;9.65;6.53;;;19.30;59.10;;;;;;5058043;28;20495;-47